Time;durP1;ratioP1;P1;durP2;ratioP2;P2;SDS_P1;SDS_P2;PMS_P1;PMS_P2;Temp;Humidity;BMP_temperature;BMP_pressure;BME280_temperature;BME280_humidity;BME280_pressure;Samples;Min_cycle;Max_cycle;Signal;HPM_P1;HPM_P2
2023/11/03 00:02:23;;;;;;;;;;;;;;;13.51;56.10;97726.91;4999329;27;98036;-64
2023/11/03 00:04:51;;;;;;;;;;;;;;;13.50;56.26;97719.16;4990598;27;98148;-65
2023/11/03 00:07:19;;;;;;;;;;;;;;;13.48;56.17;97724.13;4983501;27;98164;-64
2023/11/03 00:09:46;;;;;;;;;;;;;;;13.47;55.96;97723.31;4966011;27;98451;-65
2023/11/03 00:12:13;;;;;;;;;;;;;;;13.46;56.22;97729.88;4976761;27;98247;-64
2023/11/03 00:14:39;;;;;;;;;;;;;;;13.46;56.19;97739.94;4963461;27;98990;-64
2023/11/03 00:17:06;;;;;;;;;;;;;;;13.44;56.15;97753.00;4995664;27;99960;-69
2023/11/03 00:19:33;;;;;;;;;;;;;;;13.42;56.08;97780.44;4983983;27;98362;-69
2023/11/03 00:21:59;;;;;;;;;;;;;;;13.41;56.18;97786.19;4966300;27;98421;-69
2023/11/03 00:24:26;;;;;;;;;;;;;;;13.40;55.87;97792.72;4999479;27;99680;-69
2023/11/03 00:26:54;;;;;;;;;;;;;;;13.38;56.38;97790.38;4966442;27;98442;-69
2023/11/03 00:29:24;;;;;;;;;;;;;;;13.38;56.31;97770.66;5001394;27;99651;-69
2023/11/03 00:31:50;;;;;;;;;;;;;;;13.37;56.33;97766.41;4998304;27;99924;-63
2023/11/03 00:34:17;;;;;;;;;;;;;;;13.36;56.28;97765.63;4998336;27;100322;-63
2023/11/03 00:36:45;;;;;;;;;;;;;;;13.34;56.36;97777.91;4980762;27;98473;-63
2023/11/03 00:39:12;;;;;;;;;;;;;;;13.33;56.29;97790.66;4997332;27;99780;-69
2023/11/03 00:41:40;;;;;;;;;;;;;;;13.32;56.33;97796.41;4988700;27;98271;-69
2023/11/03 00:44:07;;;;;;;;;;;;;;;13.31;56.10;97794.84;5002465;27;98496;-63
2023/11/03 00:46:38;;;;;;;;;;;;;;;13.30;56.18;97793.28;4985532;27;98533;-69
2023/11/03 00:49:07;;;;;;;;;;;;;;;13.29;56.15;97806.00;5003866;27;98847;-63
2023/11/03 00:51:34;;;;;;;;;;;;;;;13.27;56.00;97802.84;4983912;27;98368;-64
2023/11/03 00:54:01;;;;;;;;;;;;;;;13.26;56.37;97793.97;4999250;27;98733;-69
2023/11/03 00:56:28;;;;;;;;;;;;;;;13.26;56.43;97790.47;4985205;27;98936;-63
2023/11/03 00:58:54;;;;;;;;;;;;;;;13.26;56.09;97795.88;4986619;27;100398;-63
2023/11/03 01:01:21;;;;;;;;;;;;;;;13.25;56.34;97813.25;4969309;27;98312;-68
2023/11/03 01:03:48;;;;;;;;;;;;;;;13.25;56.39;97821.38;4986692;27;98349;-64
2023/11/03 01:06:16;;;;;;;;;;;;;;;13.23;56.45;97815.50;4987124;27;98392;-69
2023/11/03 01:08:42;;;;;;;;;;;;;;;13.24;56.39;97827.91;4985205;27;99540;-69
2023/11/03 01:11:09;;;;;;;;;;;;;;;13.24;56.47;97826.00;4985416;27;98581;-69
2023/11/03 01:13:39;;;;;;;;;;;;;;;13.22;56.41;97824.72;4988427;27;98562;-64
2023/11/03 01:16:09;;;;;;;;;;;;;;;13.22;56.02;97833.63;4985545;27;99036;-64
2023/11/03 01:18:37;;;;;;;;;;;;;;;13.21;55.95;97818.53;4986654;27;99630;-69
2023/11/03 01:21:12;;;;;;;;;;;;;;;13.20;56.02;97811.56;4982769;27;98497;-64
2023/11/03 01:23:41;;;;;;;;;;;;;;;13.21;56.22;97798.81;4969035;27;98115;-64
2023/11/03 01:26:11;;;;;;;;;;;;;;;13.20;55.98;97795.34;4982203;27;98629;-69
2023/11/03 01:28:38;;;;;;;;;;;;;;;13.18;56.32;97784.06;4979181;27;99038;-64
2023/11/03 01:31:05;;;;;;;;;;;;;;;13.20;56.27;97770.19;4984817;27;98135;-64
2023/11/03 01:33:32;;;;;;;;;;;;;;;13.19;56.00;97779.44;5000869;27;98675;-65
2023/11/03 01:35:58;;;;;;;;;;;;;;;13.19;56.06;97765.91;4982073;27;98268;-64
2023/11/03 01:38:25;;;;;;;;;;;;;;;13.18;56.32;97765.13;5000140;27;101408;-64
2023/11/03 01:40:51;;;;;;;;;;;;;;;13.18;56.20;97775.19;4999678;27;97911;-64
2023/11/03 01:43:18;;;;;;;;;;;;;;;13.17;55.97;97758.16;5000857;27;98153;-63
2023/11/03 01:45:44;;;;;;;;;;;;;;;13.16;56.24;97753.88;4989518;27;97997;-64
2023/11/03 01:48:11;;;;;;;;;;;;;;;13.16;56.04;97736.84;4970105;27;99045;-64
2023/11/03 01:50:40;;;;;;;;;;;;;;;13.15;56.27;97725.25;4986294;27;98431;-64
2023/11/03 01:53:06;;;;;;;;;;;;;;;13.14;56.33;97712.88;4979562;27;99315;-64
2023/11/03 01:55:32;;;;;;;;;;;;;;;13.14;56.38;97720.22;5020634;27;108902;-64
2023/11/03 01:57:58;;;;;;;;;;;;;;;13.14;56.24;97715.59;4985601;27;99350;-69
2023/11/03 02:00:25;;;;;;;;;;;;;;;13.14;56.17;97717.50;5000344;27;98144;-64
2023/11/03 02:02:54;;;;;;;;;;;;;;;13.13;55.95;97722.13;4986476;27;98276;-69
2023/11/03 02:05:21;;;;;;;;;;;;;;;13.12;56.42;97709.72;4983926;27;98115;-64
2023/11/03 02:07:48;;;;;;;;;;;;;;;13.12;56.21;97708.94;4998427;27;98672;-69
2023/11/03 02:10:14;;;;;;;;;;;;;;;13.11;56.02;97718.97;4998011;27;99046;-69
2023/11/03 02:12:41;;;;;;;;;;;;;;;13.10;56.27;97728.25;4982911;27;99306;-69
2023/11/03 02:15:08;;;;;;;;;;;;;;;13.09;56.37;97732.09;4986326;27;98170;-64
2023/11/03 02:17:35;;;;;;;;;;;;;;;13.11;56.11;97745.25;4966481;27;98247;-69
2023/11/03 02:20:06;;;;;;;;;;;;;;;13.09;56.08;97740.19;5011836;27;98489;-69
2023/11/03 02:22:32;;;;;;;;;;;;;;;13.09;56.22;97745.59;4999074;27;98249;-69
2023/11/03 02:24:58;;;;;;;;;;;;;;;13.09;56.39;97748.31;4985446;27;98961;-64
2023/11/03 02:27:25;;;;;;;;;;;;;;;13.07;56.02;97758.69;4982914;27;99048;-69
2023/11/03 02:29:52;;;;;;;;;;;;;;;13.07;56.32;97760.59;4964246;27;98426;-69
2023/11/03 02:32:19;;;;;;;;;;;;;;;13.08;56.13;97754.06;4965503;27;97919;-64
2023/11/03 02:34:46;;;;;;;;;;;;;;;13.07;56.04;97749.78;5001497;27;98911;-68
2023/11/03 02:37:13;;;;;;;;;;;;;;;13.06;56.03;97770.63;4996511;27;100637;-68
2023/11/03 02:39:40;;;;;;;;;;;;;;;13.06;56.29;97788.78;4994147;27;98191;-69
2023/11/03 02:42:07;;;;;;;;;;;;;;;13.05;56.50;97781.78;4969118;27;100016;-64
2023/11/03 02:44:33;;;;;;;;;;;;;;;13.04;56.11;97775.59;4981724;27;98282;-69
2023/11/03 02:47:00;;;;;;;;;;;;;;;13.03;56.04;97766.69;4997982;27;99805;-63
2023/11/03 02:49:27;;;;;;;;;;;;;;;13.03;56.25;97765.91;4999482;27;98162;-69
2023/11/03 02:51:53;;;;;;;;;;;;;;;13.02;56.21;97764.34;4988703;27;109048;-69
2023/11/03 02:54:20;;;;;;;;;;;;;;;13.01;56.41;97766.28;4957756;27;104309;-64
2023/11/03 02:56:46;;;;;;;;;;;;;;;13.00;56.05;97770.09;4963482;27;99312;-64
2023/11/03 02:59:13;;;;;;;;;;;;;;;13.01;56.20;97771.69;4996152;27;98225;-69
2023/11/03 03:01:40;;;;;;;;;;;;;;;13.00;56.31;97755.78;4983287;27;100501;-69
2023/11/03 03:04:06;;;;;;;;;;;;;;;12.99;56.08;97756.94;4982392;27;98536;-64
2023/11/03 03:06:33;;;;;;;;;;;;;;;12.99;55.92;97768.53;5013456;27;98150;-69
2023/11/03 03:09:00;;;;;;;;;;;;;;;12.98;56.54;97769.66;4997975;27;98579;-64
2023/11/03 03:11:27;;;;;;;;;;;;;;;12.97;56.31;97770.81;4965020;27;99162;-64
2023/11/03 03:13:53;;;;;;;;;;;;;;;12.97;56.10;97772.72;5005484;27;99382;-69
2023/11/03 03:16:20;;;;;;;;;;;;;;;12.97;56.51;97778.13;4985623;27;98021;-64
2023/11/03 03:18:47;;;;;;;;;;;;;;;12.95;56.05;97775.75;4981844;27;98176;-64
2023/11/03 03:21:21;;;;;;;;;;;;;;;12.94;56.03;97765.31;4981509;27;98706;-64
2023/11/03 03:23:48;;;;;;;;;;;;;;;12.94;56.49;97762.59;4981171;27;97940;-64
2023/11/03 03:26:15;;;;;;;;;;;;;;;12.95;56.15;97761.47;4996439;27;98705;-64
2023/11/03 03:28:42;;;;;;;;;;;;;;;12.92;56.35;97767.56;4949462;27;98094;-64
2023/11/03 03:31:09;;;;;;;;;;;;;;;12.92;56.21;97757.53;5000793;27;98240;-69
2023/11/03 03:33:36;;;;;;;;;;;;;;;12.91;56.16;97753.25;4967526;27;98091;-69
2023/11/03 03:36:02;;;;;;;;;;;;;;;12.91;56.17;97745.16;4997100;27;97983;-64
2023/11/03 03:38:29;;;;;;;;;;;;;;;12.90;56.25;97745.50;4968881;27;98716;-64
2023/11/03 03:40:56;;;;;;;;;;;;;;;12.90;56.09;97757.09;4978426;27;98422;-69
2023/11/03 03:43:22;;;;;;;;;;;;;;;12.89;56.50;97749.31;4963100;27;98026;-64
2023/11/03 03:45:48;;;;;;;;;;;;;;;12.88;56.17;97747.75;4986090;27;99526;-69
2023/11/03 03:48:15;;;;;;;;;;;;;;;12.85;56.21;97749.25;4996208;27;105380;-64
2023/11/03 03:50:41;;;;;;;;;;;;;;;12.86;56.15;97750.03;4981596;27;98829;-64
2023/11/03 03:53:08;;;;;;;;;;;;;;;12.86;56.23;97752.75;5009055;27;98339;-69
2023/11/03 03:55:35;;;;;;;;;;;;;;;12.85;56.28;97751.97;4997374;27;97934;-64
2023/11/03 03:58:01;;;;;;;;;;;;;;;12.84;56.18;97758.47;4963436;27;99300;-68
2023/11/03 04:00:28;;;;;;;;;;;;;;;12.84;56.43;97761.19;4988058;27;98603;-64
2023/11/03 04:02:55;;;;;;;;;;;;;;;12.84;56.10;97760.41;4978316;27;98424;-69
2023/11/03 04:05:21;;;;;;;;;;;;;;;12.82;56.34;97760.75;4967523;27;98436;-64
2023/11/03 04:07:48;;;;;;;;;;;;;;;12.82;56.21;97768.88;4999444;27;97818;-64
2023/11/03 04:10:14;;;;;;;;;;;;;;;12.82;56.17;97776.19;4983153;27;98265;-69
2023/11/03 04:12:40;;;;;;;;;;;;;;;12.81;56.34;97771.91;4985280;27;98119;-64
2023/11/03 04:15:07;;;;;;;;;;;;;;;12.80;56.22;97760.31;4986348;27;98382;-69
2023/11/03 04:17:34;;;;;;;;;;;;;;;12.80;56.48;97762.22;4981881;27;98368;-64
2023/11/03 04:20:01;;;;;;;;;;;;;;;12.79;56.30;97758.75;4989700;27;98853;-64
2023/11/03 04:22:28;;;;;;;;;;;;;;;12.78;56.15;97749.84;4983980;27;99547;-64
2023/11/03 04:24:54;;;;;;;;;;;;;;;12.77;56.36;97742.06;4970775;27;98019;-69
2023/11/03 04:27:21;;;;;;;;;;;;;;;12.77;56.48;97742.06;5001504;27;98820;-65
2023/11/03 04:29:47;;;;;;;;;;;;;;;12.76;56.48;97735.09;4960974;27;100841;-69
2023/11/03 04:32:13;;;;;;;;;;;;;;;12.75;56.17;97720.81;4995831;27;97985;-64
2023/11/03 04:34:39;;;;;;;;;;;;;;;12.74;56.46;97723.88;5005276;27;98051;-69
2023/11/03 04:37:06;;;;;;;;;;;;;;;12.73;56.31;97724.97;4968299;27;98259;-64
2023/11/03 04:39:32;;;;;;;;;;;;;;;12.73;56.12;97736.59;4988827;27;100103;-64
2023/11/03 04:41:59;;;;;;;;;;;;;;;12.72;56.17;97737.72;4991898;27;98222;-69
2023/11/03 04:44:25;;;;;;;;;;;;;;;12.71;56.39;97738.06;4999960;27;98240;-69
2023/11/03 04:46:51;;;;;;;;;;;;;;;12.70;56.37;97750.81;5014802;27;98540;-64
2023/11/03 04:49:19;;;;;;;;;;;;;;;12.70;56.24;97748.09;5017763;27;99423;-69
2023/11/03 04:51:49;;;;;;;;;;;;;;;12.71;56.40;97754.28;4967551;27;99182;-64
2023/11/03 04:54:16;;;;;;;;;;;;;;;12.69;56.39;97754.63;4995401;27;98151;-69
2023/11/03 04:56:44;;;;;;;;;;;;;;;12.69;56.41;97751.94;4940184;27;102522;-64
2023/11/03 04:59:11;;;;;;;;;;;;;;;12.69;56.43;97737.63;4985601;27;98366;-64
2023/11/03 05:01:38;;;;;;;;;;;;;;;12.67;56.43;97719.06;4985531;27;98541;-69
2023/11/03 05:04:05;;;;;;;;;;;;;;;12.67;56.27;97710.16;4967729;27;99404;-64
2023/11/03 05:06:32;;;;;;;;;;;;;;;12.66;56.35;97706.69;4952866;27;98612;-65
2023/11/03 05:08:58;;;;;;;;;;;;;;;12.65;56.29;97704.31;4990234;27;99847;-69
2023/11/03 05:11:24;;;;;;;;;;;;;;;12.65;56.58;97715.91;5015455;27;98406;-64
2023/11/03 05:13:51;;;;;;;;;;;;;;;12.63;56.41;97723.59;4973254;27;98717;-65
2023/11/03 05:16:18;;;;;;;;;;;;;;;12.63;56.18;97736.31;4989322;27;98175;-65
2023/11/03 05:18:44;;;;;;;;;;;;;;;12.63;56.28;97736.31;4982638;27;98500;-70
2023/11/03 05:21:14;;;;;;;;;;;;;;;12.61;56.53;97731.25;4986670;27;99173;-65
2023/11/03 05:23:41;;;;;;;;;;;;;;;12.61;56.41;97733.94;4982076;27;98309;-70
2023/11/03 05:26:11;;;;;;;;;;;;;;;12.60;56.16;97726.19;5014024;27;97962;-65
2023/11/03 05:28:37;;;;;;;;;;;;;;;12.60;56.46;97728.88;4984823;27;101660;-70
2023/11/03 05:31:05;;;;;;;;;;;;;;;12.60;56.47;97726.19;4962458;27;100075;-66
2023/11/03 05:33:31;;;;;;;;;;;;;;;12.59;56.48;97721.94;4987125;27;101515;-64
2023/11/03 05:35:58;;;;;;;;;;;;;;;12.58;56.45;97720.38;4987534;27;97951;-70
2023/11/03 05:38:24;;;;;;;;;;;;;;;12.57;56.20;97689.81;5001074;27;98008;-70
2023/11/03 05:40:49;;;;;;;;;;;;;;;12.57;56.41;97665.50;5007227;27;98082;-69
2023/11/03 05:43:16;;;;;;;;;;;;;;;12.56;56.17;97672.06;4972792;27;99602;-69
2023/11/03 05:45:42;;;;;;;;;;;;;;;12.56;56.39;97709.09;4991628;27;98711;-64
2023/11/03 05:48:09;;;;;;;;;;;;;;;12.55;56.32;97750.78;4984681;27;99007;-64
2023/11/03 05:50:35;;;;;;;;;;;;;;;12.54;56.30;97774.31;5006467;27;100489;-64
2023/11/03 05:53:01;;;;;;;;;;;;;;;12.53;56.44;97787.00;4968757;27;98120;-69
2023/11/03 05:55:27;;;;;;;;;;;;;;;12.52;56.62;97812.47;4989037;27;98105;-69
2023/11/03 05:57:53;;;;;;;;;;;;;;;12.51;56.30;97810.91;4987548;27;99506;-64
2023/11/03 06:00:21;;;;;;;;;;;;;;;12.51;56.55;97832.50;4997022;27;97956;-69
2023/11/03 06:02:50;;;;;;;;;;;;;;;12.50;56.21;97832.88;4963555;27;98071;-64
2023/11/03 06:05:16;;;;;;;;;;;;;;;12.50;56.24;97846.38;4985912;27;98756;-69
2023/11/03 06:07:42;;;;;;;;;;;;;;;12.49;56.24;97850.97;4984615;27;98315;-64
2023/11/03 06:10:09;;;;;;;;;;;;;;;12.49;56.16;97845.56;4975441;27;98213;-64
2023/11/03 06:12:36;;;;;;;;;;;;;;;12.49;56.34;97844.78;4978076;27;99494;-63
2023/11/03 06:15:02;;;;;;;;;;;;;;;12.49;56.22;97847.47;4982855;27;101175;-69
2023/11/03 06:17:29;;;;;;;;;;;;;;;12.49;56.51;97850.19;4977446;27;98728;-64
2023/11/03 06:19:56;;;;;;;;;;;;;;;12.48;56.27;97876.41;4978075;27;98469;-69
2023/11/03 06:22:23;;;;;;;;;;;;;;;12.48;56.46;97876.41;4975214;27;98028;-64
2023/11/03 06:24:49;;;;;;;;;;;;;;;12.48;56.45;97840.50;4977827;27;98438;-64
2023/11/03 06:27:15;;;;;;;;;;;;;;;12.48;56.11;97827.00;4991799;27;99875;-69
2023/11/03 06:29:42;;;;;;;;;;;;;;;12.47;56.18;97847.84;4977350;27;99884;-64
2023/11/03 06:32:08;;;;;;;;;;;;;;;12.46;56.15;97865.19;4989914;27;98359;-69
2023/11/03 06:34:34;;;;;;;;;;;;;;;12.48;56.53;97872.94;4981656;27;98109;-69
2023/11/03 06:37:01;;;;;;;;;;;;;;;12.48;56.29;97868.31;4977238;27;98190;-64
2023/11/03 06:39:29;;;;;;;;;;;;;;;12.49;56.34;97853.66;4989548;27;98029;-64
2023/11/03 06:41:58;;;;;;;;;;;;;;;12.51;56.30;97859.53;4998369;27;98318;-64
2023/11/03 06:44:25;;;;;;;;;;;;;;;12.52;56.19;97865.72;4981227;27;97881;-64
2023/11/03 06:46:51;;;;;;;;;;;;;;;12.53;56.37;97857.25;4998539;27;98374;-64
2023/11/03 06:49:18;;;;;;;;;;;;;;;12.55;56.23;97842.63;4974689;27;98117;-69
2023/11/03 06:51:44;;;;;;;;;;;;;;;12.55;56.48;97843.41;4962895;27;98227;-69
2023/11/03 06:54:11;;;;;;;;;;;;;;;12.56;55.96;97839.59;4980124;27;98266;-69
2023/11/03 06:56:37;;;;;;;;;;;;;;;12.60;56.28;97858.59;4963609;27;98631;-64
2023/11/03 06:59:06;;;;;;;;;;;;;;;12.63;56.24;97863.31;4985264;27;100295;-64
2023/11/03 07:01:34;;;;;;;;;;;;;;;12.66;55.98;97857.25;4982698;27;98028;-64
2023/11/03 07:04:00;;;;;;;;;;;;;;;12.72;55.96;97858.56;4969018;27;99187;-64
2023/11/03 07:06:27;;;;;;;;;;;;;;;12.76;56.09;97848.63;4958595;27;100286;-70
2023/11/03 07:08:54;;;;;;;;;;;;;;;12.80;56.22;97851.44;4997920;27;99115;-64
2023/11/03 07:11:20;;;;;;;;;;;;;;;12.84;55.96;97863.13;4995749;27;99420;-70
2023/11/03 07:13:46;;;;;;;;;;;;;;;12.86;56.21;97863.59;4982321;27;98189;-70
2023/11/03 07:16:13;;;;;;;;;;;;;;;12.88;56.01;97880.22;5012612;27;98398;-69
2023/11/03 07:18:44;;;;;;;;;;;;;;;12.91;56.08;97893.06;4975620;27;98159;-70
2023/11/03 07:21:13;;;;;;;;;;;;;;;12.95;56.18;97888.53;4979900;27;99306;-65
2023/11/03 07:23:40;;;;;;;;;;;;;;;12.97;56.06;97903.28;4997206;27;98250;-64
2023/11/03 07:26:07;;;;;;;;;;;;;;;12.99;56.06;97911.84;5011194;27;98599;-69
2023/11/03 07:28:33;;;;;;;;;;;;;;;13.03;55.96;97898.41;4993852;27;98599;-64
2023/11/03 07:31:03;;;;;;;;;;;;;;;13.05;55.74;97888.06;4984227;27;97900;-64
2023/11/03 07:33:31;;;;;;;;;;;;;;;13.07;55.64;97877.66;4991547;27;98996;-69
2023/11/03 07:35:57;;;;;;;;;;;;;;;13.10;55.72;97878.91;4992241;27;99598;-64
2023/11/03 07:38:23;;;;;;;;;;;;;;;13.13;55.88;97872.81;4966411;27;98006;-70
2023/11/03 07:40:49;;;;;;;;;;;;;;;13.14;55.73;97872.44;4991347;27;99381;-64
2023/11/03 07:43:16;;;;;;;;;;;;;;;13.16;56.05;97870.16;4975470;27;98962;-67
2023/11/03 07:45:43;;;;;;;;;;;;;;;13.17;56.08;97873.69;4964018;27;99918;-69
2023/11/03 07:48:11;;;;;;;;;;;;;;;13.19;55.81;97876.81;4102229;27;10000654;-70
2023/11/03 07:50:37;;;;;;;;;;;;;;;13.20;55.64;97883.78;4976566;27;100750;-64
2023/11/03 07:53:07;;;;;;;;;;;;;;;13.22;55.81;97889.66;4991572;27;98345;-70
2023/11/03 07:55:34;;;;;;;;;;;;;;;13.23;55.65;97900.16;4981116;27;99807;-64
2023/11/03 07:58:00;;;;;;;;;;;;;;;13.23;56.01;97888.53;5011114;27;98561;-64
2023/11/03 08:00:27;;;;;;;;;;;;;;;13.25;55.92;97886.28;4964833;27;98328;-65
2023/11/03 08:02:53;;;;;;;;;;;;;;;13.27;55.95;97894.84;4978270;27;99294;-65
2023/11/03 08:05:22;;;;;;;;;;;;;;;13.28;55.66;97890.97;5010619;27;98405;-70
2023/11/03 08:07:48;;;;;;;;;;;;;;;13.33;55.76;97898.88;4975048;27;99090;-65
2023/11/03 08:10:14;;;;;;;;;;;;;;;13.39;55.96;97885.84;4107369;27;10000480;-64
2023/11/03 08:12:40;;;;;;;;;;;;;;;13.47;55.58;97882.19;4981920;27;99541;-70
2023/11/03 08:15:08;;;;;;;;;;;;;;;13.55;55.40;97892.06;4997462;27;98142;-65
2023/11/03 08:17:35;;;;;;;;;;;;;;;13.63;55.46;97901.94;5012969;27;98359;-69
2023/11/03 08:20:05;;;;;;;;;;;;;;;13.71;55.51;97892.84;4977143;27;98208;-65
2023/11/03 08:22:32;;;;;;;;;;;;;;;13.78;55.42;97876.00;4962079;27;98594;-65
2023/11/03 08:25:00;;;;;;;;;;;;;;;13.83;55.71;97881.16;4979415;27;98408;-65
2023/11/03 08:27:26;;;;;;;;;;;;;;;13.86;55.30;97885.88;4994733;27;99669;-65
2023/11/03 08:29:54;;;;;;;;;;;;;;;13.87;55.35;97868.50;4992557;27;98506;-65
2023/11/03 08:32:22;;;;;;;;;;;;;;;13.87;55.39;97860.38;4995581;27;99623;-71
2023/11/03 08:34:48;;;;;;;;;;;;;;;13.87;55.56;97849.56;4978287;27;98376;-71
2023/11/03 08:37:15;;;;;;;;;;;;;;;13.90;55.39;97853.47;4993000;27;98384;-71
2023/11/03 08:39:42;;;;;;;;;;;;;;;13.90;55.57;97846.13;4974852;27;97933;-70
2023/11/03 08:42:08;;;;;;;;;;;;;;;13.92;55.80;97826.81;4944480;27;98896;-65
2023/11/03 08:44:36;;;;;;;;;;;;;;;13.95;55.43;97835.03;4970302;27;98484;-65
2023/11/03 08:47:03;;;;;;;;;;;;;;;14.00;55.60;97848.28;5006619;27;99633;-65
2023/11/03 08:49:30;;;;;;;;;;;;;;;14.04;55.69;97845.66;4978578;27;99450;-65
2023/11/03 08:51:56;;;;;;;;;;;;;;;14.07;55.58;97855.81;5012305;27;99516;-71
2023/11/03 08:54:22;;;;;;;;;;;;;;;14.07;55.71;97861.22;4980415;27;98147;-69
2023/11/03 08:56:50;;;;;;;;;;;;;;;14.08;55.46;97875.53;4977427;27;98545;-64
2023/11/03 08:59:17;;;;;;;;;;;;;;;14.08;55.50;97884.44;4978318;27;98385;-69
2023/11/03 09:01:43;;;;;;;;;;;;;;;14.08;55.73;97894.50;4999934;27;98139;-64
2023/11/03 09:04:10;;;;;;;;;;;;;;;14.07;55.69;97896.44;4980461;27;98260;-69
2023/11/03 09:06:36;;;;;;;;;;;;;;;14.07;55.83;97896.44;4969649;27;100362;-69
2023/11/03 09:09:04;;;;;;;;;;;;;;;14.09;55.59;97890.66;4984627;27;97926;-69
2023/11/03 09:11:30;;;;;;;;;;;;;;;14.10;55.96;97901.13;4980188;27;98262;-69
2023/11/03 09:13:59;;;;;;;;;;;;;;;14.11;55.54;97893.78;5016089;27;98519;-69
2023/11/03 09:16:25;;;;;;;;;;;;;;;14.11;55.59;97894.59;4997536;27;98426;-67
2023/11/03 09:18:52;;;;;;;;;;;;;;;14.13;55.67;97888.81;4982098;27;98636;-64
2023/11/03 09:21:19;;;;;;;;;;;;;;;14.14;55.48;97882.25;4980038;27;99454;-64
2023/11/03 09:23:47;;;;;;;;;;;;;;;14.15;55.72;97878.41;4961150;27;99446;-64
2023/11/03 09:26:14;;;;;;;;;;;;;;;14.16;55.79;97885.41;4992963;27;98834;-64
2023/11/03 09:28:40;;;;;;;;;;;;;;;14.14;55.48;97883.03;4979948;27;98763;-69
2023/11/03 09:31:07;;;;;;;;;;;;;;;14.16;55.59;97877.28;4961745;27;98176;-64
2023/11/03 09:33:34;;;;;;;;;;;;;;;14.15;55.86;97871.06;4942010;28;98925;-64
2023/11/03 09:36:03;;;;;;;;;;;;;;;14.17;55.65;97868.78;4959736;28;98568;-64
2023/11/03 09:38:31;;;;;;;;;;;;;;;14.20;55.86;97864.59;4960272;28;98592;-65
2023/11/03 09:40:57;;;;;;;;;;;;;;;14.21;55.65;97869.66;4943243;28;98232;-70
2023/11/03 09:43:23;;;;;;;;;;;;;;;14.21;55.80;97860.75;4955032;28;99225;-65
2023/11/03 09:45:50;;;;;;;;;;;;;;;14.22;55.64;97870.44;4976407;27;98501;-69
2023/11/03 09:48:18;;;;;;;;;;;;;;;14.22;55.77;97870.44;4944787;28;98573;-70
2023/11/03 09:50:47;;;;;;;;;;;;;;;14.21;55.59;97869.66;4930867;28;98203;-64
2023/11/03 09:53:25;;;;;;;;;;;;;;;14.21;55.56;97863.44;4971965;28;99028;-65
2023/11/03 09:55:52;;;;;;;;;;;;;;;14.21;55.87;97874.28;4949312;28;98198;-64
2023/11/03 09:58:19;;;;;;;;;;;;;;;14.20;55.67;97889.75;4960293;28;98430;-70
2023/11/03 10:00:46;;;;;;;;;;;;;;;14.20;55.91;97894.38;4942838;28;98181;-65
2023/11/03 10:03:12;;;;;;;;;;;;;;;14.21;55.57;97894.03;4964164;28;98471;-65
2023/11/03 10:05:39;;;;;;;;;;;;;;;14.23;55.76;97882.84;4957125;28;98110;-64
2023/11/03 10:08:07;;;;;;;;;;;;;;;14.22;55.67;97883.97;4957393;28;99350;-70
2023/11/03 10:10:38;;;;;;;;;;;;;;;14.21;55.96;97893.25;4966843;27;98048;-65
2023/11/03 10:13:05;;;;;;;;;;;;;;;14.21;55.57;97891.31;4923620;28;98362;-65
2023/11/03 10:15:32;;;;;;;;;;;;;;;14.24;55.92;97903.38;4949725;28;98871;-64
2023/11/03 10:17:58;;;;;;;;;;;;;;;14.23;55.56;97907.25;4950437;28;98379;-65
2023/11/03 10:20:27;;;;;;;;;;;;;;;14.24;55.85;97898.75;4959834;28;97952;-65
2023/11/03 10:22:54;;;;;;;;;;;;;;;14.27;55.57;97904.63;4953984;28;99195;-70
2023/11/03 10:25:26;;;;;;;;;;;;;;;14.29;55.67;97903.09;4955566;28;98743;-64
2023/11/03 10:27:56;;;;;;;;;;;;;;;14.32;55.85;97896.97;4941669;28;98073;-70
2023/11/03 10:30:26;;;;;;;;;;;;;;;14.35;55.33;97896.28;4924132;28;98253;-70
2023/11/03 10:32:53;;;;;;;;;;;;;;;14.38;55.44;97897.47;4926025;28;98137;-65
2023/11/03 10:35:19;;;;;;;;;;;;;;;14.39;55.37;97891.72;4935352;28;98366;-64
2023/11/03 10:37:48;;;;;;;;;;;;;;;14.40;55.75;97878.97;4920452;28;99331;-69
2023/11/03 10:40:14;;;;;;;;;;;;;;;14.39;55.41;97886.31;4939675;28;98395;-64
2023/11/03 10:42:49;;;;;;;;;;;;;;;14.39;55.58;97880.88;4940468;28;100745;-65
2023/11/03 10:45:17;;;;;;;;;;;;;;;14.41;55.88;97885.94;4924093;28;98844;-65
2023/11/03 10:48:13;;;;;;;;;;;;;;;14.41;55.53;97883.22;4944594;28;98509;-70
2023/11/03 10:50:49;;;;;;;;;;;;;;;14.43;55.60;97881.75;4935172;28;98376;-69
2023/11/03 10:53:41;;;;;;;;;;;;;;;14.44;55.52;97877.88;4942324;28;98483;-69
2023/11/03 10:56:09;;;;;;;;;;;;;;;14.44;55.52;97880.59;4923201;28;98382;-69
2023/11/03 10:58:37;;;;;;;;;;;;;;;14.45;55.60;97881.38;4913327;28;99425;-69
2023/11/03 11:01:14;;;;;;;;;;;;;;;14.46;55.51;97881.03;4949621;28;98400;-64
2023/11/03 11:03:50;;;;;;;;;;;;;;;14.48;55.45;97877.97;4927936;28;98382;-70
2023/11/03 11:06:28;;;;;;;;;;;;;;;14.47;55.71;97865.56;4933419;28;98158;-69
2023/11/03 11:09:07;;;;;;;;;;;;;;;14.46;55.82;97874.81;4927463;28;99671;-64
2023/11/03 11:11:33;;;;;;;;;;;;;;;14.44;55.75;97866.25;4956406;27;98456;-70
2023/11/03 11:14:20;;;;;;;;;;;;;;;14.42;55.91;97866.63;4926892;28;98272;-69
2023/11/03 11:16:47;;;;;;;;;;;;;;;14.40;55.84;97855.34;4957427;28;98132;-64
2023/11/03 11:19:14;;;;;;;;;;;;;;;14.40;55.74;97863.47;4937049;28;98163;-64
2023/11/03 11:21:51;;;;;;;;;;;;;;;14.41;55.66;97869.69;4954424;28;98155;-69
2023/11/03 11:24:21;;;;;;;;;;;;;;;14.40;55.80;97868.91;4935952;28;98571;-64
2023/11/03 11:26:49;;;;;;;;;;;;;;;14.42;55.75;97868.53;4957485;28;98068;-64
2023/11/03 11:29:26;;;;;;;;;;;;;;;14.41;55.84;97875.88;4957375;28;98563;-64
2023/11/03 11:31:55;;;;;;;;;;;;;;;14.43;55.93;97867.41;4960435;28;98069;-65
2023/11/03 11:34:21;;;;;;;;;;;;;;;14.44;55.51;97872.47;4955096;28;99808;-64
2023/11/03 11:36:49;;;;;;;;;;;;;;;14.46;55.85;97869.38;4954063;28;98049;-65
2023/11/03 11:39:17;;;;;;;;;;;;;;;14.50;55.58;97854.03;4939510;28;99500;-64
2023/11/03 11:41:51;;;;;;;;;;;;;;;14.58;55.56;97852.25;4956678;28;98222;-64
2023/11/03 11:44:29;;;;;;;;;;;;;;;14.69;55.53;97845.13;4942529;28;99103;-64
2023/11/03 11:46:56;;;;;;;;;;;;;;;14.84;55.36;97851.59;4942270;28;99311;-65
2023/11/03 11:49:23;;;;;;;;;;;;;;;14.92;55.07;97861.44;4954035;28;100055;-70
2023/11/03 11:51:53;;;;;;;;;;;;;;;14.92;55.11;97861.44;4957306;28;100315;-70
2023/11/03 11:54:20;;;;;;;;;;;;;;;14.94;55.56;97854.53;4941192;28;98694;-71
2023/11/03 11:56:46;;;;;;;;;;;;;;;15.02;55.28;97851.97;4968216;27;98653;-65
2023/11/03 11:59:17;;;;;;;;;;;;;;;15.08;55.23;97859.44;4971775;28;97851;-65
2023/11/03 12:01:43;;;;;;;;;;;;;;;15.16;55.14;97858.41;4963799;27;99206;-65
2023/11/03 12:04:12;;;;;;;;;;;;;;;15.17;55.39;97861.94;4953057;28;99035;-70
2023/11/03 12:06:40;;;;;;;;;;;;;;;15.20;55.22;97858.47;4965381;28;98613;-65
2023/11/03 12:09:07;;;;;;;;;;;;;;;15.23;55.34;97868.63;4955497;28;99531;-70
2023/11/03 12:11:33;;;;;;;;;;;;;;;15.23;55.45;97866.69;4945125;28;98383;-66
2023/11/03 12:14:00;;;;;;;;;;;;;;;15.26;55.47;97865.19;4967064;28;98298;-70
2023/11/03 12:16:26;;;;;;;;;;;;;;;15.30;55.41;97867.97;4958030;28;99879;-70
2023/11/03 12:18:56;;;;;;;;;;;;;;;15.32;55.03;97866.44;4951211;28;100226;-65
2023/11/03 12:21:25;;;;;;;;;;;;;;;15.35;55.19;97854.88;4935307;28;98912;-65
2023/11/03 12:23:57;;;;;;;;;;;;;;;15.37;55.19;97844.44;4943479;28;98920;-70
2023/11/03 12:26:27;;;;;;;;;;;;;;;15.38;55.20;97842.53;4924420;28;99081;-65
2023/11/03 12:29:34;;;;;;;;;;;;;;;15.37;55.37;97838.25;4959435;28;98097;-65
2023/11/03 12:32:04;;;;;;;;;;;;;;;15.37;55.49;97840.97;4938351;28;98079;-65
2023/11/03 12:34:32;;;;;;;;;;;;;;;15.38;55.42;97843.28;4954907;28;98846;-65
2023/11/03 12:36:59;;;;;;;;;;;;;;;15.41;55.48;97844.50;4942065;28;98752;-70
2023/11/03 12:39:29;;;;;;;;;;;;;;;15.44;55.47;97852.72;4946467;28;98326;-70
2023/11/03 12:42:09;;;;;;;;;;;;;;;15.48;55.05;97850.03;4959929;28;99640;-65
2023/11/03 12:45:00;;;;;;;;;;;;;;;15.54;55.16;97853.25;4950257;28;99606;-70
2023/11/03 12:47:47;;;;;;;;;;;;;;;15.57;55.37;97850.59;4940654;28;99412;-65
2023/11/03 12:50:17;;;;;;;;;;;;;;;15.58;55.18;97854.09;4947875;28;98029;-70